createdAt,value
2022-12-25T00:00:18.516Z,4
2022-12-25T00:01:13.083Z,4
2022-12-25T00:02:13.091Z,4
2022-12-25T00:03:13.159Z,4
2022-12-25T00:04:13.197Z,5
2022-12-25T00:05:13.165Z,4
2022-12-25T00:06:13.082Z,4
2022-12-25T00:07:13.104Z,4
2022-12-25T00:08:13.084Z,4
2022-12-25T00:09:13.081Z,5
2022-12-25T00:10:13.111Z,4
2022-12-25T00:11:13.082Z,4
2022-12-25T00:12:13.228Z,4
2022-12-25T00:13:13.100Z,4
2022-12-25T00:14:13.078Z,4
2022-12-25T00:16:13.208Z,4
2022-12-25T00:17:13.099Z,4
2022-12-25T00:18:13.107Z,4
2022-12-25T00:19:13.156Z,4
2022-12-25T00:20:13.095Z,4
2022-12-25T00:21:13.092Z,4
2022-12-25T00:22:13.105Z,4
2022-12-25T00:23:13.082Z,4
2022-12-25T00:24:13.089Z,4
2022-12-25T00:25:13.116Z,4
2022-12-25T00:26:13.186Z,4
2022-12-25T00:27:13.088Z,4
2022-12-25T00:28:13.122Z,4
2022-12-25T00:29:13.128Z,4
2022-12-25T00:30:13.087Z,4
2022-12-25T00:31:13.128Z,4
2022-12-25T00:32:13.112Z,4
2022-12-25T00:33:13.091Z,4
2022-12-25T00:34:13.084Z,4
2022-12-25T00:35:13.098Z,3
2022-12-25T00:36:13.091Z,2
2022-12-25T00:37:13.115Z,3
2022-12-25T00:38:13.084Z,3
2022-12-25T00:39:13.087Z,3
2022-12-25T00:40:13.103Z,3
2022-12-25T00:41:13.120Z,3
2022-12-25T00:42:13.184Z,3
2022-12-25T00:43:13.095Z,3
2022-12-25T00:44:13.088Z,3
2022-12-25T00:45:15.047Z,3
2022-12-25T00:46:13.452Z,3
2022-12-25T00:47:13.257Z,3
2022-12-25T00:48:13.096Z,3
2022-12-25T00:49:13.149Z,3
2022-12-25T00:50:13.095Z,3
2022-12-25T00:51:13.096Z,3
2022-12-25T00:52:13.101Z,3
2022-12-25T00:53:13.083Z,4
2022-12-25T00:54:13.087Z,3
2022-12-25T00:55:13.112Z,4
2022-12-25T00:56:13.090Z,4
2022-12-25T00:57:13.267Z,4
2022-12-25T00:58:13.144Z,4
2022-12-25T00:59:13.083Z,4
2022-12-25T01:00:13.107Z,3
2022-12-25T01:01:13.150Z,3
2022-12-25T01:02:13.153Z,3
2022-12-25T01:03:13.144Z,3
2022-12-25T01:04:13.080Z,3
2022-12-25T01:05:13.131Z,3
2022-12-25T01:06:13.086Z,3
2022-12-25T01:07:13.122Z,3
2022-12-25T01:08:13.090Z,3
2022-12-25T01:09:13.103Z,3
2022-12-25T01:10:13.110Z,3
2022-12-25T01:11:13.091Z,4
2022-12-25T01:12:13.144Z,4
2022-12-25T01:13:13.095Z,4
2022-12-25T01:14:13.096Z,3
2022-12-25T01:15:13.090Z,3
2022-12-25T01:16:13.120Z,3
2022-12-25T01:17:13.101Z,3
2022-12-25T01:18:13.382Z,3
2022-12-25T01:19:13.147Z,3
2022-12-25T01:20:13.098Z,3
2022-12-25T01:21:13.077Z,3
2022-12-25T01:22:13.099Z,3
2022-12-25T01:23:13.076Z,3
2022-12-25T01:24:13.111Z,3
2022-12-25T01:25:13.101Z,3
2022-12-25T01:26:13.161Z,3
2022-12-25T01:27:13.117Z,3
2022-12-25T01:28:13.086Z,3
2022-12-25T01:29:13.092Z,3
2022-12-25T01:30:13.088Z,3
2022-12-25T01:31:13.175Z,3
2022-12-25T01:32:13.178Z,3
2022-12-25T01:33:13.106Z,4
2022-12-25T01:34:13.085Z,4
2022-12-25T01:35:13.151Z,3
2022-12-25T01:36:13.104Z,3
2022-12-25T01:37:13.109Z,3
2022-12-25T01:38:13.086Z,3
2022-12-25T01:39:13.096Z,3
2022-12-25T01:40:23.092Z,3
2022-12-25T01:41:13.111Z,3
2022-12-25T01:42:13.107Z,3
2022-12-25T01:43:18.555Z,4
2022-12-25T01:44:13.092Z,3
2022-12-25T01:45:13.099Z,3
2022-12-25T01:46:13.219Z,3
2022-12-25T01:47:13.100Z,3
2022-12-25T01:48:13.108Z,3
2022-12-25T01:49:13.086Z,4
2022-12-25T01:50:13.122Z,4
2022-12-25T01:51:13.166Z,3
2022-12-25T01:52:13.108Z,3
2022-12-25T01:53:13.111Z,3
2022-12-25T01:54:13.095Z,3
2022-12-25T01:55:13.099Z,3
2022-12-25T01:56:13.093Z,3
2022-12-25T01:57:13.092Z,5
2022-12-25T01:58:13.095Z,4
2022-12-25T01:59:13.084Z,5
2022-12-25T02:00:13.084Z,8
2022-12-25T02:01:13.185Z,12
2022-12-25T02:02:13.377Z,9
2022-12-25T02:03:13.102Z,6
2022-12-25T02:04:13.088Z,4
2022-12-25T02:05:13.168Z,5
2022-12-25T02:06:13.097Z,4
2022-12-25T02:07:13.115Z,4
2022-12-25T02:08:13.093Z,4
2022-12-25T02:09:13.090Z,4
2022-12-25T02:10:13.118Z,3
2022-12-25T02:11:13.129Z,4
2022-12-25T02:12:13.132Z,4
2022-12-25T02:13:13.087Z,5
2022-12-25T02:14:13.097Z,5
2022-12-25T02:15:13.082Z,7
2022-12-25T02:16:13.197Z,8
2022-12-25T02:17:13.146Z,8
2022-12-25T02:18:13.113Z,16
2022-12-25T02:19:13.142Z,14
2022-12-25T02:20:13.086Z,17
2022-12-25T02:21:13.129Z,17
2022-12-25T02:22:13.103Z,16
2022-12-25T02:23:13.097Z,15
2022-12-25T02:24:13.106Z,11
2022-12-25T02:25:13.088Z,10
2022-12-25T02:26:13.179Z,11
2022-12-25T02:27:13.102Z,9
2022-12-25T02:28:13.084Z,8
2022-12-25T02:29:13.090Z,7
2022-12-25T02:30:13.126Z,7
2022-12-25T02:31:13.131Z,7
2022-12-25T02:32:13.252Z,5
2022-12-25T02:33:13.120Z,5
2022-12-25T02:34:13.083Z,4
2022-12-25T02:35:13.123Z,3
2022-12-25T02:36:13.116Z,4
2022-12-25T02:37:13.125Z,3
2022-12-25T02:38:13.073Z,3
2022-12-25T02:39:13.107Z,3
2022-12-25T02:40:29.468Z,3
2022-12-25T02:41:13.124Z,3
2022-12-25T02:42:13.077Z,3
2022-12-25T02:43:13.101Z,3
2022-12-25T02:44:13.157Z,3
2022-12-25T02:45:13.093Z,3
2022-12-25T02:46:13.126Z,3
2022-12-25T02:47:13.088Z,4
2022-12-25T02:48:13.072Z,4
2022-12-25T02:49:13.093Z,4
2022-12-25T02:50:13.090Z,4
2022-12-25T02:51:13.169Z,6
2022-12-25T02:52:13.112Z,10
2022-12-25T02:53:13.104Z,11
2022-12-25T02:54:13.106Z,11
2022-12-25T02:55:13.109Z,10
2022-12-25T02:56:13.126Z,9
2022-12-25T02:57:13.090Z,9
2022-12-25T02:58:13.083Z,9
2022-12-25T02:59:13.113Z,6
2022-12-25T03:00:13.152Z,7
2022-12-25T03:01:13.161Z,7
2022-12-25T03:02:13.220Z,7
2022-12-25T03:03:13.135Z,6
2022-12-25T03:04:13.119Z,6
2022-12-25T03:05:13.093Z,6
2022-12-25T03:06:13.117Z,6
2022-12-25T03:07:13.112Z,5
2022-12-25T03:08:13.101Z,6
2022-12-25T03:09:13.099Z,5
2022-12-25T03:10:13.095Z,5
2022-12-25T03:11:13.150Z,4
2022-12-25T03:12:13.088Z,3
2022-12-25T03:13:13.093Z,4
2022-12-25T03:14:13.092Z,3
2022-12-25T03:15:13.099Z,3
2022-12-25T03:16:13.128Z,4
2022-12-25T03:17:13.121Z,3
2022-12-25T03:18:13.159Z,3
2022-12-25T03:19:13.090Z,3
2022-12-25T03:20:13.082Z,3
2022-12-25T03:21:13.104Z,3
2022-12-25T03:22:13.090Z,2
2022-12-25T03:23:13.111Z,2
2022-12-25T03:24:13.088Z,3
2022-12-25T03:25:13.101Z,3
2022-12-25T03:26:13.176Z,3
2022-12-25T03:27:13.089Z,3
2022-12-25T03:28:13.128Z,3
2022-12-25T03:29:13.093Z,3
2022-12-25T03:30:13.084Z,2
2022-12-25T03:31:13.221Z,3
2022-12-25T03:32:13.083Z,2
2022-12-25T03:33:43.408Z,3
2022-12-25T03:34:13.110Z,3
2022-12-25T03:35:13.111Z,2
2022-12-25T03:36:13.123Z,3
2022-12-25T03:37:13.100Z,2
2022-12-25T03:38:13.126Z,2
2022-12-25T03:39:13.099Z,3
2022-12-25T03:40:35.468Z,2
2022-12-25T03:41:13.111Z,3
2022-12-25T03:42:13.089Z,3
2022-12-25T03:43:13.098Z,3
2022-12-25T03:44:13.091Z,3
2022-12-25T03:45:13.109Z,3
2022-12-25T03:46:13.307Z,3
2022-12-25T03:47:13.088Z,3
2022-12-25T03:48:13.120Z,4
2022-12-25T03:49:13.092Z,4
2022-12-25T03:50:13.092Z,4
2022-12-25T03:51:13.104Z,4
2022-12-25T03:52:13.095Z,4
2022-12-25T03:53:13.101Z,5
2022-12-25T03:54:13.131Z,5
2022-12-25T03:55:13.094Z,4
2022-12-25T03:56:13.098Z,3
2022-12-25T03:57:13.097Z,3
2022-12-25T03:58:13.130Z,3
2022-12-25T03:59:16.586Z,3
2022-12-25T04:00:13.151Z,3
2022-12-25T04:01:13.183Z,2
2022-12-25T04:02:13.230Z,3
2022-12-25T04:03:13.112Z,2
2022-12-25T04:04:13.094Z,2
2022-12-25T04:05:13.118Z,3
2022-12-25T04:06:13.131Z,4
2022-12-25T04:07:13.158Z,7
2022-12-25T04:08:13.107Z,8
2022-12-25T04:09:13.090Z,8
2022-12-25T04:10:13.078Z,9
2022-12-25T04:11:13.117Z,8
2022-12-25T04:12:13.101Z,7
2022-12-25T04:13:13.113Z,6
2022-12-25T04:14:13.088Z,6
2022-12-25T04:15:13.092Z,5
2022-12-25T04:16:13.192Z,5
2022-12-25T04:17:13.104Z,3
2022-12-25T04:19:13.091Z,3
2022-12-25T04:20:13.098Z,3
2022-12-25T04:21:13.178Z,3
2022-12-25T04:22:13.123Z,2
2022-12-25T04:23:13.111Z,2
2022-12-25T04:24:13.089Z,3
2022-12-25T04:25:13.091Z,3
2022-12-25T04:26:13.102Z,3
2022-12-25T04:27:13.105Z,2
2022-12-25T04:28:13.112Z,3
2022-12-25T04:29:13.093Z,2
2022-12-25T04:30:13.101Z,2
2022-12-25T04:31:13.137Z,3
2022-12-25T04:32:13.109Z,4
2022-12-25T04:33:13.095Z,4
2022-12-25T04:34:13.100Z,5
2022-12-25T04:35:13.108Z,5
2022-12-25T04:36:13.119Z,5
2022-12-25T04:37:13.124Z,5
2022-12-25T04:38:13.186Z,5
2022-12-25T04:39:13.090Z,5
2022-12-25T04:42:13.105Z,5
2022-12-25T04:43:13.087Z,5
2022-12-25T04:44:13.097Z,4
2022-12-25T04:45:13.094Z,4
2022-12-25T04:46:13.176Z,4
2022-12-25T04:47:13.098Z,3
2022-12-25T04:48:13.092Z,3
2022-12-25T04:49:13.092Z,3
2022-12-25T04:50:13.111Z,3
2022-12-25T04:51:13.111Z,3
2022-12-25T04:52:13.098Z,2
2022-12-25T04:53:13.129Z,2
2022-12-25T04:54:13.097Z,2
2022-12-25T04:55:13.091Z,2
2022-12-25T04:56:13.131Z,2
2022-12-25T04:57:13.102Z,2
2022-12-25T04:58:13.137Z,2
2022-12-25T04:59:13.255Z,2
2022-12-25T05:00:13.095Z,2
2022-12-25T05:01:13.170Z,2
2022-12-25T05:02:13.233Z,2
2022-12-25T05:03:13.221Z,2
2022-12-25T05:04:13.118Z,2
2022-12-25T05:05:13.097Z,3
2022-12-25T05:06:13.121Z,3
2022-12-25T05:07:13.103Z,3
2022-12-25T05:08:13.129Z,3
2022-12-25T05:09:13.094Z,3
2022-12-25T05:10:13.092Z,3
2022-12-25T05:11:13.120Z,3
2022-12-25T05:12:13.094Z,3
2022-12-25T05:13:13.106Z,3
2022-12-25T05:14:13.089Z,2
2022-12-25T05:15:13.106Z,2
2022-12-25T05:16:13.237Z,2
2022-12-25T05:17:13.110Z,2
2022-12-25T05:18:13.116Z,2
2022-12-25T05:19:13.317Z,2
2022-12-25T05:20:13.095Z,2
2022-12-25T05:21:13.108Z,2
2022-12-25T05:22:13.101Z,2
2022-12-25T05:23:13.122Z,2
2022-12-25T05:24:13.095Z,2
2022-12-25T05:25:13.101Z,2
2022-12-25T05:26:13.118Z,2
2022-12-25T05:27:13.105Z,2
2022-12-25T05:28:13.102Z,2
2022-12-25T05:29:13.102Z,2
2022-12-25T05:30:13.105Z,2
2022-12-25T05:32:13.097Z,2
2022-12-25T05:33:13.145Z,2
2022-12-25T05:34:13.101Z,2
2022-12-25T05:35:13.097Z,2
2022-12-25T05:36:13.132Z,2
2022-12-25T05:37:13.108Z,2
2022-12-25T05:38:13.124Z,2
2022-12-25T05:39:13.202Z,2
2022-12-25T05:40:13.105Z,2
2022-12-25T05:41:13.133Z,2
2022-12-25T05:42:13.111Z,2
2022-12-25T05:43:13.102Z,2
2022-12-25T05:44:13.098Z,2
2022-12-25T05:45:13.094Z,2
2022-12-25T05:46:13.209Z,2
2022-12-25T05:47:13.158Z,2
2022-12-25T05:48:13.090Z,2
2022-12-25T05:49:13.118Z,2
2022-12-25T05:50:13.092Z,2
2022-12-25T05:51:13.124Z,2
2022-12-25T05:52:13.095Z,2
2022-12-25T05:53:13.091Z,2
2022-12-25T05:54:13.142Z,2
2022-12-25T05:55:13.104Z,2
2022-12-25T05:56:13.109Z,2
2022-12-25T05:57:13.111Z,2
2022-12-25T05:58:13.122Z,2
2022-12-25T05:59:13.105Z,2
2022-12-25T06:00:13.103Z,2
2022-12-25T06:01:13.107Z,2
2022-12-25T06:02:13.185Z,2
2022-12-25T06:03:13.254Z,2
2022-12-25T06:04:13.389Z,2
2022-12-25T06:05:13.099Z,2
2022-12-25T06:06:13.101Z,2
2022-12-25T06:07:13.098Z,2
2022-12-25T06:08:13.119Z,2
2022-12-25T06:09:13.095Z,2
2022-12-25T06:10:13.154Z,4
2022-12-25T06:11:13.103Z,13
2022-12-25T06:12:13.093Z,14
2022-12-25T06:13:13.101Z,9
2022-12-25T06:14:13.106Z,8
2022-12-25T06:15:13.106Z,8
2022-12-25T06:16:13.211Z,6
2022-12-25T06:17:13.130Z,7
2022-12-25T06:18:13.108Z,5
2022-12-25T06:19:13.096Z,3
2022-12-25T06:20:13.107Z,4
2022-12-25T06:21:13.125Z,3
2022-12-25T06:22:13.103Z,2
2022-12-25T06:23:13.144Z,2
2022-12-25T06:24:19.213Z,2
2022-12-25T06:25:13.096Z,5
2022-12-25T06:26:13.103Z,6
2022-12-25T06:27:13.100Z,5
2022-12-25T06:28:13.089Z,3
2022-12-25T06:29:13.098Z,2
2022-12-25T06:30:13.098Z,3
2022-12-25T06:31:13.128Z,3
2022-12-25T06:32:13.097Z,4
2022-12-25T06:33:13.085Z,4
2022-12-25T06:34:13.094Z,3
2022-12-25T06:35:13.094Z,3
2022-12-25T06:36:13.102Z,3
2022-12-25T06:37:13.116Z,2
2022-12-25T06:38:13.086Z,2
2022-12-25T06:39:13.147Z,3
2022-12-25T06:40:13.138Z,3
2022-12-25T06:41:13.133Z,2
2022-12-25T06:42:13.101Z,2
2022-12-25T06:43:13.102Z,3
2022-12-25T06:44:13.099Z,3
2022-12-25T06:45:13.098Z,3
2022-12-25T06:46:13.172Z,3
2022-12-25T06:47:13.148Z,3
2022-12-25T06:48:13.129Z,2
2022-12-25T06:49:13.097Z,2
2022-12-25T06:50:13.103Z,3
2022-12-25T06:51:13.107Z,3
2022-12-25T06:52:13.112Z,3
2022-12-25T06:53:13.105Z,2
2022-12-25T06:54:13.107Z,3
2022-12-25T06:55:13.091Z,2
2022-12-25T06:56:13.108Z,2
2022-12-25T06:57:13.117Z,2
2022-12-25T06:58:13.101Z,3
2022-12-25T06:59:13.093Z,2
2022-12-25T07:00:13.101Z,2
2022-12-25T07:01:23.346Z,3
2022-12-25T07:02:13.206Z,3
2022-12-25T07:03:13.144Z,2
2022-12-25T07:04:13.101Z,3
2022-12-25T07:05:13.096Z,3
2022-12-25T07:06:13.088Z,3
2022-12-25T07:07:13.097Z,3
2022-12-25T07:08:13.107Z,3
2022-12-25T07:09:13.115Z,3
2022-12-25T07:10:13.101Z,3
2022-12-25T07:11:13.142Z,3
2022-12-25T07:12:13.113Z,3
2022-12-25T07:13:13.119Z,3
2022-12-25T07:14:13.091Z,3
2022-12-25T07:15:13.134Z,3
2022-12-25T07:16:13.175Z,3
2022-12-25T07:17:13.113Z,3
2022-12-25T07:18:13.099Z,3
2022-12-25T07:19:13.178Z,3
2022-12-25T07:20:13.097Z,3
2022-12-25T07:21:13.111Z,3
2022-12-25T07:22:13.117Z,3
2022-12-25T07:23:13.106Z,3
2022-12-25T07:24:13.117Z,3
2022-12-25T07:25:13.092Z,3
2022-12-25T07:26:13.153Z,3
2022-12-25T07:27:13.112Z,3
2022-12-25T07:28:13.117Z,3
2022-12-25T07:29:13.110Z,3
2022-12-25T07:30:13.093Z,3
2022-12-25T07:31:13.175Z,3
2022-12-25T07:32:13.176Z,2
2022-12-25T07:33:13.130Z,3
2022-12-25T07:34:13.115Z,3
2022-12-25T07:35:13.104Z,3
2022-12-25T07:36:13.358Z,3
2022-12-25T07:37:13.143Z,3
2022-12-25T07:38:13.102Z,3
2022-12-25T07:39:13.271Z,3
2022-12-25T07:40:13.185Z,3
2022-12-25T07:41:13.363Z,3
2022-12-25T07:42:13.099Z,3
2022-12-25T07:43:13.144Z,3
2022-12-25T07:44:13.133Z,3
2022-12-25T07:45:13.097Z,3
2022-12-25T07:46:13.173Z,3
2022-12-25T07:47:13.106Z,3
2022-12-25T07:48:16.640Z,3
2022-12-25T07:49:13.094Z,3
2022-12-25T07:50:13.100Z,3
2022-12-25T07:51:13.150Z,3
2022-12-25T07:52:13.090Z,2
2022-12-25T07:53:13.090Z,3
2022-12-25T07:54:13.113Z,3
2022-12-25T07:55:13.098Z,3
2022-12-25T07:56:13.100Z,3
2022-12-25T07:57:13.125Z,3
2022-12-25T07:58:15.139Z,3
2022-12-25T07:59:13.101Z,3
2022-12-25T08:00:13.098Z,3
2022-12-25T08:01:29.951Z,3
2022-12-25T08:02:13.379Z,3
2022-12-25T08:03:13.313Z,3
2022-12-25T08:04:13.127Z,2
2022-12-25T08:05:13.095Z,3
2022-12-25T08:06:13.096Z,3
2022-12-25T08:07:13.104Z,3
2022-12-25T08:08:13.126Z,3
2022-12-25T08:09:13.123Z,2
2022-12-25T08:10:13.156Z,2
2022-12-25T08:11:13.095Z,2
2022-12-25T08:12:13.347Z,3
2022-12-25T08:13:14.731Z,3
2022-12-25T08:14:13.156Z,2
2022-12-25T08:15:13.109Z,3
2022-12-25T08:16:13.248Z,3
2022-12-25T08:17:13.203Z,2
2022-12-25T08:18:13.128Z,2
2022-12-25T08:19:13.092Z,3
2022-12-25T08:20:13.101Z,3
2022-12-25T08:21:13.102Z,3
2022-12-25T08:22:13.162Z,3
2022-12-25T08:23:13.093Z,2
2022-12-25T08:24:13.167Z,3
2022-12-25T08:25:13.115Z,2
2022-12-25T08:26:13.112Z,2
2022-12-25T08:27:13.289Z,3
2022-12-25T08:28:13.107Z,2
2022-12-25T08:29:13.104Z,2
2022-12-25T08:30:13.103Z,2
2022-12-25T08:31:13.276Z,3
2022-12-25T08:32:13.117Z,3
2022-12-25T08:33:13.095Z,3
2022-12-25T08:34:13.096Z,2
2022-12-25T08:35:13.116Z,2
2022-12-25T08:36:13.108Z,2
2022-12-25T08:37:13.152Z,2
2022-12-25T08:38:13.098Z,2
2022-12-25T08:39:13.130Z,3
2022-12-25T08:40:13.134Z,2
2022-12-25T08:41:13.106Z,2
2022-12-25T08:42:13.139Z,3
2022-12-25T08:43:13.096Z,3
2022-12-25T08:44:13.137Z,2
2022-12-25T08:45:13.115Z,2
2022-12-25T08:46:13.186Z,2
2022-12-25T08:47:13.112Z,2
2022-12-25T08:48:13.107Z,2
2022-12-25T08:49:13.141Z,2
2022-12-25T08:50:13.182Z,2
2022-12-25T08:51:13.104Z,2
2022-12-25T08:52:13.120Z,2
2022-12-25T08:53:13.099Z,2
2022-12-25T08:54:13.117Z,2
2022-12-25T08:55:13.108Z,2
2022-12-25T08:56:13.224Z,2
2022-12-25T08:57:13.224Z,2
2022-12-25T08:58:13.099Z,2
2022-12-25T08:59:13.116Z,2
2022-12-25T09:00:13.096Z,2
2022-12-25T09:01:35.666Z,2
2022-12-25T09:02:13.325Z,2
2022-12-25T09:03:13.203Z,2
2022-12-25T09:04:13.097Z,2
2022-12-25T09:05:13.133Z,2
2022-12-25T09:06:13.099Z,2
2022-12-25T09:07:13.119Z,2
2022-12-25T09:08:13.096Z,3
2022-12-25T09:09:13.099Z,2
2022-12-25T09:10:13.149Z,2
2022-12-25T09:11:13.099Z,2
2022-12-25T09:12:13.108Z,2
2022-12-25T09:13:13.092Z,2
2022-12-25T09:14:13.169Z,3
2022-12-25T09:15:13.113Z,2
2022-12-25T09:16:13.197Z,2
2022-12-25T09:17:13.174Z,2
2022-12-25T09:18:13.105Z,2
2022-12-25T09:19:13.107Z,2
2022-12-25T09:20:13.108Z,2
2022-12-25T09:21:13.109Z,2
2022-12-25T09:22:13.127Z,2
2022-12-25T09:23:14.334Z,2
2022-12-25T09:24:13.164Z,3
2022-12-25T09:25:13.129Z,2
2022-12-25T09:26:13.101Z,2
2022-12-25T09:27:13.120Z,2
2022-12-25T09:28:13.155Z,2
2022-12-25T09:29:13.109Z,2
2022-12-25T09:30:13.168Z,2
2022-12-25T09:31:13.158Z,2
2022-12-25T09:32:13.102Z,2
2022-12-25T09:33:13.107Z,2
2022-12-25T09:34:17.183Z,2
2022-12-25T09:35:13.089Z,2
2022-12-25T09:36:13.097Z,2
2022-12-25T09:37:18.130Z,2
2022-12-25T09:38:13.180Z,2
2022-12-25T09:39:13.134Z,2
2022-12-25T09:40:13.111Z,2
2022-12-25T09:41:13.110Z,2
2022-12-25T09:42:13.114Z,2
2022-12-25T09:43:13.106Z,2
2022-12-25T09:44:13.116Z,2
2022-12-25T09:45:13.173Z,2
2022-12-25T09:46:13.098Z,2
2022-12-25T09:47:13.130Z,2
2022-12-25T09:48:13.104Z,2
2022-12-25T09:49:13.115Z,2
2022-12-25T09:50:13.108Z,2
2022-12-25T09:51:13.099Z,2
2022-12-25T09:52:13.174Z,2
2022-12-25T09:53:13.097Z,2
2022-12-25T09:54:13.112Z,2
2022-12-25T09:55:19.673Z,2
2022-12-25T09:56:13.110Z,2
2022-12-25T09:57:13.115Z,3
2022-12-25T09:58:13.117Z,3
2022-12-25T09:59:13.104Z,2
2022-12-25T10:00:13.100Z,2
2022-12-25T10:02:13.315Z,3
2022-12-25T10:03:13.209Z,3
2022-12-25T10:04:13.105Z,2
2022-12-25T10:05:13.100Z,3
2022-12-25T10:06:13.108Z,3
2022-12-25T10:07:13.155Z,3
2022-12-25T10:08:13.108Z,3
2022-12-25T10:09:13.110Z,3
2022-12-25T10:10:13.104Z,2
2022-12-25T10:11:13.110Z,3
2022-12-25T10:12:13.103Z,2
2022-12-25T10:13:13.110Z,2
2022-12-25T10:14:13.105Z,2
2022-12-25T10:15:13.128Z,3
2022-12-25T10:16:13.283Z,3
2022-12-25T10:17:13.125Z,3
2022-12-25T10:18:13.137Z,3
2022-12-25T10:19:13.101Z,3
2022-12-25T10:20:13.157Z,3
2022-12-25T10:21:13.508Z,3
2022-12-25T10:22:13.112Z,3
2022-12-25T10:23:13.093Z,3
2022-12-25T10:24:13.105Z,4
2022-12-25T10:25:13.090Z,3
2022-12-25T10:26:13.121Z,3
2022-12-25T10:27:13.132Z,4
2022-12-25T10:28:13.114Z,5
2022-12-25T10:29:13.104Z,6
2022-12-25T10:30:13.102Z,6
2022-12-25T10:31:13.189Z,6
2022-12-25T10:32:13.113Z,6
2022-12-25T10:33:16.886Z,6
2022-12-25T10:34:13.132Z,5
2022-12-25T10:35:13.124Z,5
2022-12-25T10:36:13.178Z,5
2022-12-25T10:37:13.107Z,5
2022-12-25T10:38:13.127Z,5
2022-12-25T10:39:13.099Z,6
2022-12-25T10:40:13.109Z,5
2022-12-25T10:41:13.099Z,5
2022-12-25T10:42:13.133Z,5
2022-12-25T10:43:13.173Z,6
2022-12-25T10:44:13.114Z,4
2022-12-25T10:45:13.111Z,4
2022-12-25T10:46:13.212Z,5
2022-12-25T10:47:13.136Z,5
2022-12-25T10:48:13.122Z,5
2022-12-25T10:49:13.130Z,5
2022-12-25T10:50:13.173Z,5
2022-12-25T10:51:13.104Z,5
2022-12-25T10:52:13.146Z,4
2022-12-25T10:53:13.182Z,5
2022-12-25T10:54:13.189Z,4
2022-12-25T10:55:13.110Z,5
2022-12-25T10:56:13.112Z,4
2022-12-25T10:57:13.184Z,4
2022-12-25T10:58:13.125Z,4
2022-12-25T10:59:13.139Z,4
2022-12-25T11:00:13.101Z,5
2022-12-25T11:01:13.142Z,4
2022-12-25T11:02:13.227Z,4
2022-12-25T11:03:13.366Z,4
2022-12-25T11:04:13.273Z,3
2022-12-25T11:05:13.117Z,3
2022-12-25T11:06:13.176Z,4
2022-12-25T11:07:13.133Z,4
2022-12-25T11:08:13.109Z,3
2022-12-25T11:09:13.101Z,3
2022-12-25T11:10:13.110Z,3
2022-12-25T11:11:13.099Z,3
2022-12-25T11:12:13.124Z,3
2022-12-25T11:13:13.116Z,3
2022-12-25T11:14:13.115Z,3
2022-12-25T11:15:13.104Z,3
2022-12-25T11:16:13.154Z,3
2022-12-25T11:17:13.112Z,4
2022-12-25T11:18:13.105Z,5
2022-12-25T11:19:13.117Z,4
2022-12-25T11:20:13.128Z,4
2022-12-25T11:21:13.111Z,4
2022-12-25T11:22:13.113Z,4
2022-12-25T11:23:13.113Z,4
2022-12-25T11:24:13.105Z,3
2022-12-25T11:25:13.122Z,3
2022-12-25T11:26:13.101Z,3
2022-12-25T11:27:13.130Z,3
2022-12-25T11:28:13.113Z,3
2022-12-25T11:29:13.133Z,3
2022-12-25T11:30:16.095Z,4
2022-12-25T11:31:13.264Z,3
2022-12-25T11:32:13.100Z,4
2022-12-25T11:33:13.237Z,4
2022-12-25T11:34:13.114Z,4
2022-12-25T11:35:13.111Z,3
2022-12-25T11:36:13.107Z,4
2022-12-25T11:37:13.117Z,4
2022-12-25T11:38:13.105Z,4
2022-12-25T11:39:13.119Z,4
2022-12-25T11:40:13.128Z,4
2022-12-25T11:41:13.111Z,5
2022-12-25T11:42:13.125Z,4
2022-12-25T11:43:13.125Z,3
2022-12-25T11:44:13.101Z,4
2022-12-25T11:45:13.107Z,3
2022-12-25T11:46:13.151Z,3
2022-12-25T11:47:13.136Z,3
2022-12-25T11:48:13.108Z,3
2022-12-25T11:49:13.102Z,4
2022-12-25T11:50:13.109Z,4
2022-12-25T11:51:13.141Z,5
2022-12-25T11:52:13.128Z,4
2022-12-25T11:53:13.110Z,4
2022-12-25T11:54:13.104Z,4
2022-12-25T11:55:13.108Z,6
2022-12-25T11:56:13.117Z,5
2022-12-25T11:57:13.206Z,8
2022-12-25T11:58:13.125Z,7
2022-12-25T12:00:13.175Z,6
2022-12-25T12:01:13.109Z,5
2022-12-25T12:02:13.332Z,4
2022-12-25T12:03:13.188Z,5
2022-12-25T12:04:13.152Z,5
2022-12-25T12:05:13.114Z,6
2022-12-25T12:06:13.104Z,6
2022-12-25T12:07:13.141Z,6
2022-12-25T12:08:13.111Z,6
2022-12-25T12:09:13.114Z,6
2022-12-25T12:10:13.188Z,6
2022-12-25T12:11:13.108Z,6
2022-12-25T12:12:13.140Z,6
2022-12-25T12:13:13.118Z,6
2022-12-25T12:14:13.123Z,5
2022-12-25T12:15:13.121Z,6
2022-12-25T12:16:13.198Z,5
2022-12-25T12:17:13.126Z,5
2022-12-25T12:18:13.116Z,5
2022-12-25T12:19:13.106Z,4
2022-12-25T12:20:13.112Z,4
2022-12-25T12:21:13.107Z,4
2022-12-25T12:22:23.147Z,3
2022-12-25T12:23:13.111Z,4
2022-12-25T12:24:13.103Z,4
2022-12-25T12:25:13.119Z,4
2022-12-25T12:26:13.116Z,4
2022-12-25T12:27:13.144Z,4
2022-12-25T12:28:13.109Z,3
2022-12-25T12:29:13.125Z,4
2022-12-25T12:30:13.116Z,3
2022-12-25T12:31:13.196Z,3
2022-12-25T12:32:13.192Z,3
2022-12-25T12:33:13.128Z,4
2022-12-25T12:34:13.125Z,4
2022-12-25T12:35:13.106Z,4
2022-12-25T12:36:13.113Z,4
2022-12-25T12:37:13.132Z,4
2022-12-25T12:38:13.105Z,4
2022-12-25T12:39:13.297Z,3
2022-12-25T12:40:13.106Z,4
2022-12-25T12:41:13.117Z,4
2022-12-25T12:42:13.129Z,4
2022-12-25T12:43:13.117Z,3
2022-12-25T12:44:13.102Z,4
2022-12-25T12:45:13.123Z,4
2022-12-25T12:46:13.155Z,4
2022-12-25T12:47:13.128Z,3
2022-12-25T12:48:13.125Z,3
2022-12-25T12:49:13.115Z,3
2022-12-25T12:50:13.132Z,3
2022-12-25T12:51:13.139Z,3
2022-12-25T12:52:13.178Z,3
2022-12-25T12:53:13.147Z,3
2022-12-25T12:54:13.116Z,3
2022-12-25T12:55:13.267Z,3
2022-12-25T12:56:13.138Z,3
2022-12-25T12:57:13.135Z,3
2022-12-25T12:58:13.107Z,3
2022-12-25T12:59:13.116Z,3
2022-12-25T13:00:13.131Z,3
2022-12-25T13:01:13.191Z,3
2022-12-25T13:02:13.238Z,3
2022-12-25T13:03:13.252Z,4
2022-12-25T13:04:13.116Z,3
2022-12-25T13:05:13.121Z,4
2022-12-25T13:06:13.128Z,4
2022-12-25T13:07:13.156Z,3
2022-12-25T13:08:13.170Z,3
2022-12-25T13:09:13.135Z,3
2022-12-25T13:10:13.127Z,3
2022-12-25T13:11:13.135Z,3
2022-12-25T13:12:13.138Z,3
2022-12-25T13:13:13.111Z,3
2022-12-25T13:14:13.211Z,3
2022-12-25T13:15:13.133Z,3
2022-12-25T13:16:13.136Z,4
2022-12-25T13:17:13.141Z,3
2022-12-25T13:18:13.147Z,3
2022-12-25T13:19:13.117Z,3
2022-12-25T13:20:13.139Z,3
2022-12-25T13:21:13.213Z,3
2022-12-25T13:22:29.461Z,3
2022-12-25T13:23:13.247Z,3
2022-12-25T13:24:13.144Z,3
2022-12-25T13:25:13.123Z,3
2022-12-25T13:26:13.148Z,3
2022-12-25T13:27:13.107Z,3
2022-12-25T13:28:13.116Z,4
2022-12-25T13:29:13.117Z,3
2022-12-25T13:30:13.129Z,3
2022-12-25T13:31:13.132Z,3
2022-12-25T13:32:13.156Z,3
2022-12-25T13:33:13.135Z,3
2022-12-25T13:34:13.113Z,3
2022-12-25T13:35:13.122Z,3
2022-12-25T13:36:13.123Z,3
2022-12-25T13:37:13.124Z,3
2022-12-25T13:38:13.111Z,3
2022-12-25T13:39:13.189Z,3
2022-12-25T13:40:13.113Z,3
2022-12-25T13:41:13.116Z,3
2022-12-25T13:42:13.110Z,3
2022-12-25T13:43:13.183Z,3
2022-12-25T13:44:13.112Z,3
2022-12-25T13:45:13.116Z,3
2022-12-25T13:46:13.236Z,3
2022-12-25T13:47:13.147Z,3
2022-12-25T13:48:13.417Z,3
2022-12-25T13:49:13.132Z,3
2022-12-25T13:50:13.163Z,3
2022-12-25T13:51:13.129Z,3
2022-12-25T13:52:13.113Z,3
2022-12-25T13:53:13.167Z,3
2022-12-25T13:54:13.117Z,3
2022-12-25T13:55:13.164Z,3
2022-12-25T13:56:13.128Z,3
2022-12-25T13:57:13.154Z,3
2022-12-25T13:58:13.118Z,3
2022-12-25T13:59:13.113Z,3
2022-12-25T14:00:13.176Z,3
2022-12-25T14:01:13.197Z,4
2022-12-25T14:02:13.271Z,3
2022-12-25T14:03:13.221Z,3
2022-12-25T14:04:13.133Z,4
2022-12-25T14:05:13.113Z,4
2022-12-25T14:06:13.126Z,3
2022-12-25T14:07:13.200Z,3
2022-12-25T14:08:13.141Z,3
2022-12-25T14:09:13.115Z,4
2022-12-25T14:10:13.131Z,3
2022-12-25T14:11:13.123Z,4
2022-12-25T14:12:18.937Z,3
2022-12-25T14:13:13.161Z,4
2022-12-25T14:14:13.121Z,3
2022-12-25T14:15:13.119Z,4
2022-12-25T14:16:13.430Z,3
2022-12-25T14:17:13.208Z,4
2022-12-25T14:18:13.146Z,3
2022-12-25T14:19:13.127Z,3
2022-12-25T14:20:13.124Z,3
2022-12-25T14:21:13.198Z,3
2022-12-25T14:22:35.448Z,4
2022-12-25T14:23:13.143Z,3
2022-12-25T14:24:13.121Z,4
2022-12-25T14:25:13.142Z,3
2022-12-25T14:26:13.160Z,3
2022-12-25T14:27:13.133Z,3
2022-12-25T14:28:13.143Z,3
2022-12-25T14:29:17.709Z,3
2022-12-25T14:30:13.138Z,3
2022-12-25T14:31:13.197Z,3
2022-12-25T14:32:13.125Z,3
2022-12-25T14:33:13.131Z,3
2022-12-25T14:34:13.121Z,4
2022-12-25T14:35:16.832Z,3
2022-12-25T14:36:13.151Z,3
2022-12-25T14:37:13.117Z,3
2022-12-25T14:38:13.130Z,3
2022-12-25T14:39:13.125Z,4
2022-12-25T14:40:13.136Z,3
2022-12-25T14:41:13.127Z,3
2022-12-25T14:42:13.123Z,3
2022-12-25T14:43:13.128Z,3
2022-12-25T14:44:13.208Z,3
2022-12-25T14:45:13.121Z,3
2022-12-25T14:46:13.430Z,4
2022-12-25T14:47:13.126Z,3
2022-12-25T14:48:13.144Z,3
2022-12-25T14:49:13.117Z,3
2022-12-25T14:50:13.118Z,3
2022-12-25T14:51:13.199Z,3
2022-12-25T14:52:13.123Z,3
2022-12-25T14:53:13.137Z,3